createdAt,value
2022-08-03T00:00:58.118Z,0
2022-08-03T00:01:58.112Z,0
2022-08-03T00:02:58.115Z,0
2022-08-03T00:03:58.112Z,0
2022-08-03T00:04:58.101Z,0
2022-08-03T00:06:04.298Z,0
2022-08-03T00:06:58.114Z,0
2022-08-03T00:07:58.105Z,0
2022-08-03T00:08:58.106Z,0
2022-08-03T00:09:58.113Z,0
2022-08-03T00:10:59.115Z,0
2022-08-03T00:11:58.103Z,0
2022-08-03T00:12:58.105Z,0
2022-08-03T00:13:58.100Z,0
2022-08-03T00:14:58.115Z,0
2022-08-03T00:15:58.109Z,0
2022-08-03T00:16:58.111Z,0
2022-08-03T00:17:58.110Z,0
2022-08-03T00:18:58.110Z,0
2022-08-03T00:19:58.108Z,0
2022-08-03T00:20:58.112Z,0
2022-08-03T00:21:58.108Z,0
2022-08-03T00:22:58.117Z,0
2022-08-03T00:23:58.104Z,0
2022-08-03T00:24:58.113Z,0
2022-08-03T00:25:58.114Z,0
2022-08-03T00:26:58.108Z,0
2022-08-03T00:27:58.105Z,0
2022-08-03T00:28:58.114Z,0
2022-08-03T00:29:59.758Z,0
2022-08-03T00:30:58.118Z,0
2022-08-03T00:31:59.662Z,0
2022-08-03T00:32:58.123Z,0
2022-08-03T00:33:59.805Z,0
2022-08-03T00:34:58.926Z,0
2022-08-03T00:35:58.116Z,0
2022-08-03T00:36:58.112Z,0
2022-08-03T00:37:58.114Z,0
2022-08-03T00:38:58.136Z,0
2022-08-03T00:39:58.862Z,0
2022-08-03T00:40:58.118Z,0
2022-08-03T00:41:58.139Z,0
2022-08-03T00:42:58.114Z,0
2022-08-03T00:43:58.115Z,0
2022-08-03T00:44:58.118Z,0
2022-08-03T00:45:58.117Z,0
2022-08-03T00:46:58.119Z,0
2022-08-03T00:47:58.120Z,0
2022-08-03T00:48:58.152Z,0
2022-08-03T00:49:58.112Z,0
2022-08-03T00:50:58.114Z,0
2022-08-03T00:51:58.120Z,0
2022-08-03T00:52:58.120Z,0
2022-08-03T00:53:58.107Z,0
2022-08-03T00:54:58.121Z,0
2022-08-03T00:55:58.120Z,0
2022-08-03T00:56:59.197Z,0
2022-08-03T00:57:58.119Z,0
2022-08-03T00:58:58.122Z,0
2022-08-03T00:59:58.119Z,0
2022-08-03T01:00:58.136Z,0
2022-08-03T01:01:58.123Z,0
2022-08-03T01:02:58.122Z,0
2022-08-03T01:03:58.120Z,0
2022-08-03T01:04:58.119Z,0
2022-08-03T01:05:58.124Z,0
2022-08-03T01:06:58.122Z,0
2022-08-03T01:07:58.125Z,0
2022-08-03T01:08:58.150Z,0
2022-08-03T01:09:58.124Z,0
2022-08-03T01:10:58.125Z,0
2022-08-03T01:12:00.422Z,0
2022-08-03T01:12:58.122Z,0
2022-08-03T01:14:01.795Z,0
2022-08-03T01:14:58.120Z,0
2022-08-03T01:15:58.114Z,0
2022-08-03T01:16:58.123Z,0
2022-08-03T01:17:58.122Z,0
2022-08-03T01:18:58.120Z,0
2022-08-03T01:19:58.126Z,0
2022-08-03T01:20:58.137Z,0
2022-08-03T01:21:58.122Z,0
2022-08-03T01:22:58.122Z,0
2022-08-03T01:23:58.123Z,0
2022-08-03T01:24:58.130Z,0
2022-08-03T01:25:58.122Z,0
2022-08-03T01:26:58.129Z,0
2022-08-03T01:27:58.127Z,0
2022-08-03T01:28:58.127Z,0
2022-08-03T01:29:58.126Z,0
2022-08-03T01:30:58.138Z,0
2022-08-03T01:32:52.049Z,0
2022-08-03T01:33:01.584Z,0
2022-08-03T01:33:58.125Z,0
2022-08-03T01:34:58.134Z,0
2022-08-03T01:35:58.133Z,0
2022-08-03T01:36:58.132Z,0
2022-08-03T01:37:58.136Z,0
2022-08-03T01:38:58.150Z,0
2022-08-03T01:39:58.140Z,0
2022-08-03T01:40:58.143Z,0
2022-08-03T01:41:58.158Z,0
2022-08-03T01:42:58.135Z,0
2022-08-03T01:44:27.065Z,0
2022-08-03T01:44:58.155Z,0
2022-08-03T01:45:58.148Z,0
2022-08-03T01:46:58.147Z,0
2022-08-03T01:47:58.147Z,0
2022-08-03T01:48:58.205Z,0
2022-08-03T01:49:58.149Z,0
2022-08-03T01:50:58.171Z,0
2022-08-03T01:52:03.779Z,0
2022-08-03T01:52:58.163Z,0
2022-08-03T01:53:58.153Z,0
2022-08-03T01:54:58.150Z,0
2022-08-03T01:55:58.150Z,0
2022-08-03T01:56:58.152Z,0
2022-08-03T01:58:04.969Z,0
2022-08-03T01:58:58.164Z,0
2022-08-03T01:59:58.162Z,0
2022-08-03T02:00:58.212Z,0
2022-08-03T02:02:15.878Z,0
2022-08-03T02:02:58.162Z,0
2022-08-03T02:03:59.628Z,0
2022-08-03T02:04:58.158Z,0
2022-08-03T02:06:18.111Z,0
2022-08-03T02:07:00.949Z,0
2022-08-03T02:07:58.165Z,0
2022-08-03T02:08:58.166Z,0
2022-08-03T02:09:58.158Z,0
2022-08-03T02:10:58.170Z,0
2022-08-03T02:11:58.178Z,0
2022-08-03T02:12:58.164Z,0
2022-08-03T02:13:58.170Z,0
2022-08-03T02:15:00.007Z,0
2022-08-03T02:15:58.184Z,0
2022-08-03T02:16:58.173Z,0
2022-08-03T02:17:58.183Z,0
2022-08-03T02:18:58.180Z,0
2022-08-03T02:19:58.176Z,0
2022-08-03T02:20:58.183Z,0
2022-08-03T02:22:00.980Z,0
2022-08-03T02:22:58.190Z,0
2022-08-03T02:23:58.192Z,0
2022-08-03T02:24:58.191Z,0
2022-08-03T02:25:58.192Z,0
2022-08-03T02:26:58.194Z,0
2022-08-03T02:27:58.201Z,0
2022-08-03T02:28:58.190Z,0
2022-08-03T02:29:58.197Z,0
2022-08-03T02:30:58.217Z,0
2022-08-03T02:31:58.198Z,0
2022-08-03T02:32:58.199Z,0
2022-08-03T02:33:58.200Z,0
2022-08-03T02:34:58.204Z,0
2022-08-03T02:35:58.205Z,0
2022-08-03T02:36:58.200Z,0
2022-08-03T02:37:58.199Z,0
2022-08-03T02:38:58.201Z,0
2022-08-03T02:39:58.197Z,0
2022-08-03T02:40:58.210Z,0
2022-08-03T02:41:58.203Z,0
2022-08-03T02:42:58.212Z,0
2022-08-03T02:44:06.745Z,0
2022-08-03T02:44:58.210Z,0
2022-08-03T02:45:58.211Z,0
2022-08-03T02:46:58.208Z,0
2022-08-03T02:47:58.214Z,0
2022-08-03T02:48:58.243Z,0
2022-08-03T02:49:58.240Z,0
2022-08-03T02:50:58.221Z,0
2022-08-03T02:51:58.222Z,0
2022-08-03T02:52:58.215Z,0
2022-08-03T02:53:58.217Z,0
2022-08-03T02:54:58.226Z,0
2022-08-03T02:55:58.225Z,0
2022-08-03T02:56:58.230Z,0
2022-08-03T02:58:00.897Z,0
2022-08-03T02:58:58.228Z,0
2022-08-03T02:59:58.221Z,0
2022-08-03T03:00:58.273Z,0
2022-08-03T03:01:58.225Z,0
2022-08-03T03:02:58.228Z,0
2022-08-03T03:03:58.239Z,0
2022-08-03T03:05:51.466Z,0
2022-08-03T03:05:59.754Z,0
2022-08-03T03:06:58.234Z,0
2022-08-03T03:07:58.244Z,0
2022-08-03T03:08:59.822Z,0
2022-08-03T03:09:58.234Z,0
2022-08-03T03:10:58.254Z,0
2022-08-03T03:11:58.240Z,0
2022-08-03T03:12:58.237Z,0
2022-08-03T03:13:58.236Z,0
2022-08-03T03:14:58.236Z,0
2022-08-03T03:15:58.241Z,0
2022-08-03T03:16:58.237Z,0
2022-08-03T03:17:58.242Z,0
2022-08-03T03:18:58.242Z,0
2022-08-03T03:19:58.245Z,0
2022-08-03T03:20:58.241Z,0
2022-08-03T03:21:58.247Z,0
2022-08-03T03:22:58.240Z,0
2022-08-03T03:23:58.246Z,0
2022-08-03T03:24:58.263Z,0
2022-08-03T03:25:58.251Z,0
2022-08-03T03:26:58.247Z,0
2022-08-03T03:27:58.258Z,0
2022-08-03T03:28:58.252Z,0
2022-08-03T03:29:58.255Z,0
2022-08-03T03:30:58.259Z,0
2022-08-03T03:31:58.246Z,0
2022-08-03T03:32:58.257Z,0
2022-08-03T03:33:58.258Z,0
2022-08-03T03:34:58.250Z,0
2022-08-03T03:35:58.261Z,0
2022-08-03T03:36:58.253Z,0
2022-08-03T03:37:58.263Z,0
2022-08-03T03:38:58.262Z,0
2022-08-03T03:39:58.252Z,0
2022-08-03T03:40:58.267Z,0
2022-08-03T03:41:58.256Z,0
2022-08-03T03:42:58.259Z,0
2022-08-03T03:43:58.263Z,0
2022-08-03T03:44:58.266Z,0
2022-08-03T03:45:58.268Z,0
2022-08-03T03:46:58.257Z,0
2022-08-03T03:47:58.263Z,0
2022-08-03T03:48:58.302Z,0
2022-08-03T03:49:58.263Z,0
2022-08-03T03:50:58.272Z,0
2022-08-03T03:51:58.273Z,0
2022-08-03T03:52:58.266Z,0
2022-08-03T03:53:58.276Z,0
2022-08-03T03:55:00.957Z,0
2022-08-03T03:55:59.832Z,0
2022-08-03T03:56:58.267Z,0
2022-08-03T03:57:58.275Z,0
2022-08-03T03:58:58.273Z,0
2022-08-03T03:59:58.274Z,0
2022-08-03T04:00:58.333Z,0
2022-08-03T04:01:58.774Z,0
2022-08-03T04:02:58.274Z,0
2022-08-03T04:03:58.271Z,0
2022-08-03T04:04:58.278Z,0
2022-08-03T04:05:58.278Z,0
2022-08-03T04:06:58.271Z,0
2022-08-03T04:07:58.281Z,0
2022-08-03T04:08:58.274Z,0
2022-08-03T04:09:59.799Z,0
2022-08-03T04:10:58.276Z,0
2022-08-03T04:11:58.279Z,0
2022-08-03T04:12:58.276Z,0
2022-08-03T04:14:02.097Z,0
2022-08-03T04:14:58.278Z,0
2022-08-03T04:15:58.283Z,0
2022-08-03T04:16:58.274Z,0
2022-08-03T04:17:58.277Z,0
2022-08-03T04:18:58.280Z,0
2022-08-03T04:19:58.285Z,0
2022-08-03T04:20:58.280Z,0
2022-08-03T04:21:58.276Z,0
2022-08-03T04:22:58.280Z,0
2022-08-03T04:23:58.277Z,0
2022-08-03T04:24:58.284Z,0
2022-08-03T04:25:58.288Z,0
2022-08-03T04:26:58.281Z,0
2022-08-03T04:28:09.760Z,0
2022-08-03T04:28:58.284Z,0
2022-08-03T04:29:58.283Z,0
2022-08-03T04:30:58.288Z,0
2022-08-03T04:31:58.287Z,0
2022-08-03T04:32:58.283Z,0
2022-08-03T04:33:58.282Z,0
2022-08-03T04:34:58.282Z,0
2022-08-03T04:36:01.414Z,0
2022-08-03T04:36:58.286Z,0
2022-08-03T04:37:58.296Z,0
2022-08-03T04:38:58.285Z,0
2022-08-03T04:39:58.307Z,0
2022-08-03T04:40:58.289Z,0
2022-08-03T04:42:04.525Z,0
2022-08-03T04:42:58.281Z,0
2022-08-03T04:43:58.280Z,0
2022-08-03T04:45:01.264Z,0
2022-08-03T04:45:58.283Z,0
2022-08-03T04:46:58.285Z,0
2022-08-03T04:47:58.288Z,0
2022-08-03T04:48:58.332Z,0
2022-08-03T04:49:58.290Z,0
2022-08-03T04:50:58.286Z,0
2022-08-03T04:51:58.284Z,0
2022-08-03T04:52:58.284Z,0
2022-08-03T04:53:58.286Z,0
2022-08-03T04:54:58.284Z,0
2022-08-03T04:55:58.288Z,0
2022-08-03T04:56:58.290Z,0
2022-08-03T04:57:58.292Z,0
2022-08-03T04:58:58.296Z,0
2022-08-03T05:00:02.922Z,0
2022-08-03T05:00:58.296Z,0
2022-08-03T05:01:58.333Z,0
2022-08-03T05:02:58.288Z,0
2022-08-03T05:03:58.287Z,0
2022-08-03T05:04:58.300Z,0
2022-08-03T05:06:00.614Z,0
2022-08-03T05:06:58.293Z,0
2022-08-03T05:07:58.288Z,0
2022-08-03T05:08:58.290Z,0
2022-08-03T05:10:01.915Z,0
2022-08-03T05:10:59.242Z,0
2022-08-03T05:11:58.297Z,0
2022-08-03T05:12:58.287Z,0
2022-08-03T05:13:58.290Z,0
2022-08-03T05:14:58.296Z,0
2022-08-03T05:15:58.294Z,0
2022-08-03T05:16:58.292Z,0
2022-08-03T05:17:58.300Z,0
2022-08-03T05:18:58.300Z,0
2022-08-03T05:19:58.301Z,0
2022-08-03T05:20:58.303Z,0
2022-08-03T05:21:58.307Z,0
2022-08-03T05:22:58.307Z,0
2022-08-03T05:23:58.310Z,0
2022-08-03T05:24:58.306Z,0
2022-08-03T05:25:58.312Z,0
2022-08-03T05:26:58.312Z,0
2022-08-03T05:27:58.316Z,0
2022-08-03T05:28:58.324Z,0
2022-08-03T05:30:26.466Z,0
2022-08-03T05:30:58.320Z,0
2022-08-03T05:31:58.325Z,0
2022-08-03T05:32:58.317Z,0
2022-08-03T05:33:58.309Z,0
2022-08-03T05:34:58.320Z,0
2022-08-03T05:36:02.915Z,0
2022-08-03T05:36:58.328Z,0
2022-08-03T05:37:58.329Z,0
2022-08-03T05:39:02.288Z,0
2022-08-03T05:39:58.334Z,0
2022-08-03T05:41:20.631Z,0
2022-08-03T05:41:58.330Z,0
2022-08-03T05:42:58.328Z,0
2022-08-03T05:43:58.328Z,0
2022-08-03T05:44:58.337Z,0
2022-08-03T05:46:11.521Z,0
2022-08-03T05:46:58.337Z,0
2022-08-03T05:47:58.328Z,0
2022-08-03T05:48:58.428Z,0
2022-08-03T05:49:58.340Z,0
2022-08-03T05:50:58.335Z,0
2022-08-03T05:51:59.904Z,0
2022-08-03T05:52:58.337Z,0
2022-08-03T05:53:58.335Z,0
2022-08-03T05:54:58.336Z,0
2022-08-03T05:56:02.466Z,0
2022-08-03T05:56:58.337Z,0
2022-08-03T05:57:58.351Z,0
2022-08-03T05:59:04.211Z,0
2022-08-03T05:59:58.962Z,0
2022-08-03T06:00:58.347Z,0
2022-08-03T06:01:58.438Z,0
2022-08-03T06:02:58.356Z,0
2022-08-03T06:03:58.351Z,0
2022-08-03T06:04:58.355Z,0
2022-08-03T06:06:00.176Z,0
2022-08-03T06:06:58.354Z,0
2022-08-03T06:07:58.358Z,0
2022-08-03T06:08:58.362Z,0
2022-08-03T06:10:34.595Z,0
2022-08-03T06:10:58.362Z,0
2022-08-03T06:11:58.358Z,0
2022-08-03T06:12:58.359Z,0
2022-08-03T06:13:58.367Z,0
2022-08-03T06:14:58.360Z,0
2022-08-03T06:15:58.358Z,0
2022-08-03T06:16:58.366Z,0
2022-08-03T06:18:01.555Z,0
2022-08-03T06:18:58.369Z,0
2022-08-03T06:19:58.372Z,0
2022-08-03T06:20:58.370Z,0
2022-08-03T06:21:58.367Z,0
2022-08-03T06:23:00.101Z,0
2022-08-03T06:23:58.365Z,0
2022-08-03T06:24:58.371Z,0
2022-08-03T06:25:58.366Z,4
2022-08-03T06:26:58.375Z,3.1
2022-08-03T06:27:58.381Z,1.7000000000000002
2022-08-03T06:28:58.366Z,3.2
2022-08-03T06:29:58.377Z,2.7
2022-08-03T06:30:58.368Z,0
2022-08-03T06:31:58.375Z,0
2022-08-03T06:32:58.375Z,0
2022-08-03T06:34:34.557Z,0
2022-08-03T06:34:58.391Z,0
2022-08-03T06:35:58.377Z,0
2022-08-03T06:37:01.878Z,0
2022-08-03T06:37:58.380Z,0
2022-08-03T06:38:58.388Z,0
2022-08-03T06:39:58.385Z,0
2022-08-03T06:40:58.389Z,1.4000000000000001
2022-08-03T06:41:58.374Z,0
2022-08-03T06:42:58.375Z,0
2022-08-03T06:44:02.860Z,0
2022-08-03T06:44:58.383Z,0
2022-08-03T06:45:58.391Z,0
2022-08-03T06:46:58.394Z,0
2022-08-03T06:47:58.394Z,2.3000000000000003
2022-08-03T06:48:58.448Z,1
2022-08-03T06:50:13.083Z,0
2022-08-03T06:50:58.390Z,0
2022-08-03T06:52:04.703Z,0
2022-08-03T06:52:58.394Z,0
2022-08-03T06:53:58.395Z,0.9
2022-08-03T06:54:58.399Z,0
2022-08-03T06:55:58.387Z,0
2022-08-03T06:56:58.392Z,0
2022-08-03T06:57:59.901Z,0.4
2022-08-03T06:58:58.402Z,1.2000000000000002
2022-08-03T07:00:07.169Z,2.6
2022-08-03T07:00:58.454Z,0
2022-08-03T07:01:58.413Z,0
2022-08-03T07:02:58.707Z,0
2022-08-03T07:03:58.408Z,4.6000000000000005
2022-08-03T07:04:58.402Z,2
2022-08-03T07:05:58.393Z,2.3000000000000003
2022-08-03T07:06:58.407Z,0
2022-08-03T07:07:58.407Z,0
2022-08-03T07:08:59.627Z,0
2022-08-03T07:09:58.533Z,0
2022-08-03T07:10:58.441Z,0
2022-08-03T07:11:58.410Z,2.2
2022-08-03T07:12:58.413Z,0
2022-08-03T07:13:58.412Z,0
2022-08-03T07:15:01.115Z,0
2022-08-03T07:15:58.419Z,3.1
2022-08-03T07:16:58.414Z,0.8
2022-08-03T07:17:58.422Z,0
2022-08-03T07:18:58.416Z,3.1
2022-08-03T07:19:58.416Z,3.9000000000000004
2022-08-03T07:20:58.416Z,0
2022-08-03T07:22:02.057Z,0
2022-08-03T07:22:58.417Z,0
2022-08-03T07:23:58.417Z,0
2022-08-03T07:24:58.425Z,0
2022-08-03T07:25:58.413Z,0
2022-08-03T07:26:58.419Z,0
2022-08-03T07:27:58.426Z,0
2022-08-03T07:28:58.418Z,0
2022-08-03T07:29:58.428Z,0
2022-08-03T07:30:58.422Z,0
2022-08-03T07:31:58.433Z,0
2022-08-03T07:32:58.431Z,3.8000000000000003
2022-08-03T07:33:58.442Z,2
2022-08-03T07:35:00.776Z,2
2022-08-03T07:35:58.438Z,1
2022-08-03T07:36:58.436Z,0
2022-08-03T07:37:58.440Z,0
2022-08-03T07:38:58.441Z,0
2022-08-03T07:39:58.435Z,3.1
2022-08-03T07:40:58.441Z,1.7000000000000002
2022-08-03T07:41:58.439Z,4.4
2022-08-03T07:42:58.448Z,2.1
2022-08-03T07:43:58.444Z,1.1
2022-08-03T07:44:58.443Z,0
2022-08-03T07:45:58.447Z,4.6000000000000005
2022-08-03T07:46:58.445Z,3.2
2022-08-03T07:47:58.446Z,0.9
2022-08-03T07:48:58.530Z,5.300000000000001
2022-08-03T07:49:58.441Z,0
2022-08-03T07:50:58.446Z,0
2022-08-03T07:51:58.447Z,0
2022-08-03T07:52:58.453Z,0
2022-08-03T07:53:58.444Z,0
2022-08-03T07:54:58.449Z,2
2022-08-03T07:55:58.450Z,4.9
2022-08-03T07:56:58.442Z,3.3000000000000003
2022-08-03T07:57:58.443Z,0
2022-08-03T07:58:58.449Z,0
2022-08-03T08:00:02.084Z,3.7
2022-08-03T08:00:58.466Z,1.5
2022-08-03T08:01:58.450Z,0
2022-08-03T08:02:58.452Z,0
2022-08-03T08:03:58.458Z,0
2022-08-03T08:05:02.232Z,0
2022-08-03T08:05:58.453Z,0
2022-08-03T08:06:58.462Z,0
2022-08-03T08:07:58.450Z,0
2022-08-03T08:08:58.457Z,6.6000000000000005
2022-08-03T08:09:58.459Z,4.6000000000000005
2022-08-03T08:10:58.855Z,2.3000000000000003
2022-08-03T08:11:58.459Z,0
2022-08-03T08:12:58.451Z,0
2022-08-03T08:13:58.450Z,3.4000000000000004
2022-08-03T08:14:58.455Z,1.2000000000000002
2022-08-03T08:15:58.461Z,3.3000000000000003
2022-08-03T08:16:58.457Z,3
2022-08-03T08:17:58.460Z,3.5
2022-08-03T08:18:58.448Z,9
2022-08-03T08:19:58.458Z,8.200000000000001
2022-08-03T08:20:58.462Z,9.8
2022-08-03T08:22:01.854Z,6.4
2022-08-03T08:22:58.461Z,6.2
2022-08-03T08:23:58.460Z,0
2022-08-03T08:24:58.465Z,0
2022-08-03T08:25:58.456Z,8.3
2022-08-03T08:26:58.457Z,8.200000000000001
2022-08-03T08:28:21.816Z,4.1000000000000005
2022-08-03T08:28:58.463Z,2.8000000000000003
2022-08-03T08:30:04.839Z,0
2022-08-03T08:30:58.457Z,5.800000000000001
2022-08-03T08:31:58.462Z,0.8
2022-08-03T08:32:58.456Z,3.1
2022-08-03T08:34:03.888Z,0
2022-08-03T08:34:58.472Z,3.3000000000000003
2022-08-03T08:35:58.463Z,0
2022-08-03T08:36:58.461Z,3.7
2022-08-03T08:37:58.482Z,3.8000000000000003
2022-08-03T08:38:58.466Z,2.7
2022-08-03T08:39:58.462Z,0
2022-08-03T08:40:58.458Z,6.800000000000001
2022-08-03T08:41:58.471Z,3.5
2022-08-03T08:42:59.237Z,0
2022-08-03T08:44:00.166Z,1.5
2022-08-03T08:44:58.465Z,4.9
2022-08-03T08:45:58.470Z,0
2022-08-03T08:46:58.473Z,4.3
2022-08-03T08:48:01.774Z,0.6000000000000001
2022-08-03T08:48:58.525Z,0
2022-08-03T08:50:09.581Z,3.2
2022-08-03T08:50:58.459Z,2.5
2022-08-03T08:51:59.740Z,7.5
2022-08-03T08:52:58.482Z,2.5
2022-08-03T08:53:58.468Z,0
2022-08-03T08:55:00.091Z,0
2022-08-03T08:56:00.237Z,0
2022-08-03T08:56:58.465Z,0
2022-08-03T08:57:58.475Z,0
2022-08-03T08:58:58.471Z,3.4000000000000004
2022-08-03T08:59:58.468Z,7.1000000000000005
2022-08-03T09:00:58.517Z,3.9000000000000004
2022-08-03T09:01:58.476Z,4.9
2022-08-03T09:02:58.463Z,3.3000000000000003
2022-08-03T09:03:58.468Z,4
2022-08-03T09:04:58.466Z,5.800000000000001
2022-08-03T09:05:58.466Z,0
2022-08-03T09:07:17.936Z,0
2022-08-03T09:07:58.470Z,0
2022-08-03T09:08:58.470Z,5.7
2022-08-03T09:10:04.754Z,5.4
2022-08-03T09:10:58.466Z,1.2000000000000002
2022-08-03T09:12:14.542Z,6.800000000000001
2022-08-03T09:12:58.477Z,6.4
2022-08-03T09:13:58.478Z,5.4
2022-08-03T09:15:15.042Z,3
2022-08-03T09:16:00.801Z,5.7
2022-08-03T09:16:58.477Z,6.1000000000000005
2022-08-03T09:17:58.481Z,1.7000000000000002
2022-08-03T09:18:58.480Z,0.9
2022-08-03T09:20:03.388Z,0
2022-08-03T09:20:59.706Z,0
2022-08-03T09:21:58.474Z,0
2022-08-03T09:22:58.482Z,1.6
2022-08-03T09:24:03.586Z,3.4000000000000004
2022-08-03T09:25:14.965Z,1.9000000000000001
2022-08-03T09:25:59.962Z,3.8000000000000003
2022-08-03T09:26:58.484Z,5.1000000000000005
2022-08-03T09:27:58.478Z,3.2
2022-08-03T09:29:04.042Z,2.4000000000000004
2022-08-03T09:29:58.487Z,3.4000000000000004
2022-08-03T09:30:58.496Z,0
2022-08-03T09:31:59.435Z,0
2022-08-03T09:32:58.496Z,0
2022-08-03T09:33:58.480Z,0
2022-08-03T09:34:58.495Z,0
2022-08-03T09:35:58.575Z,3.4000000000000004
2022-08-03T09:36:58.500Z,0.9
2022-08-03T09:38:08.625Z,0
2022-08-03T09:38:58.494Z,3.1
2022-08-03T09:39:58.493Z,0
2022-08-03T09:41:00.754Z,2.2
2022-08-03T09:41:58.493Z,0
2022-08-03T09:42:58.494Z,4.5
2022-08-03T09:43:58.494Z,2.7
2022-08-03T09:44:58.505Z,5.5
2022-08-03T09:45:58.502Z,6.9
2022-08-03T09:46:58.504Z,5.800000000000001
2022-08-03T09:47:58.501Z,2.9000000000000004
2022-08-03T09:48:58.583Z,4.1000000000000005
2022-08-03T09:49:58.506Z,6
2022-08-03T09:51:33.430Z,4.4
2022-08-03T09:52:33.459Z,3.7
2022-08-03T09:52:58.507Z,2.5
2022-08-03T09:54:00.044Z,4.7
2022-08-03T09:54:58.517Z,3.8000000000000003
2022-08-03T09:56:33.138Z,6.6000000000000005
2022-08-03T09:56:58.519Z,1.8
2022-08-03T09:57:58.524Z,0
2022-08-03T09:58:58.530Z,0
2022-08-03T10:00:03.208Z,0
2022-08-03T10:00:58.586Z,0
2022-08-03T10:01:58.522Z,2.3000000000000003
2022-08-03T10:02:58.521Z,1.4000000000000001
2022-08-03T10:04:02.875Z,0
2022-08-03T10:04:58.526Z,0
2022-08-03T10:05:59.911Z,3.5
2022-08-03T10:06:58.525Z,3.2
2022-08-03T10:07:58.526Z,0
2022-08-03T10:08:58.527Z,0
2022-08-03T10:09:58.521Z,0
2022-08-03T10:10:58.598Z,5.4
2022-08-03T10:11:58.524Z,5.2
2022-08-03T10:12:58.524Z,3.7
2022-08-03T10:14:01.374Z,2.7
2022-08-03T10:14:58.529Z,0
2022-08-03T10:16:20.824Z,6.1000000000000005
2022-08-03T10:16:58.525Z,4.5
2022-08-03T10:17:58.532Z,4.4
2022-08-03T10:18:58.527Z,0
2022-08-03T10:19:58.543Z,2.2
2022-08-03T10:20:58.534Z,0
2022-08-03T10:21:58.537Z,0
2022-08-03T10:22:58.541Z,0
2022-08-03T10:23:58.534Z,0
2022-08-03T10:24:58.535Z,7.9
2022-08-03T10:25:58.535Z,2.9000000000000004
2022-08-03T10:26:58.534Z,3.5
2022-08-03T10:27:58.536Z,0
2022-08-03T10:28:58.541Z,0
2022-08-03T10:29:58.543Z,0
2022-08-03T10:30:58.543Z,0
2022-08-03T10:31:58.858Z,0
2022-08-03T10:32:58.550Z,0
2022-08-03T10:33:58.537Z,5
2022-08-03T10:35:00.102Z,7
2022-08-03T10:35:58.548Z,4
2022-08-03T10:36:58.550Z,5.4
2022-08-03T10:37:58.747Z,3.8000000000000003
2022-08-03T10:38:58.550Z,0
2022-08-03T10:39:58.551Z,0
2022-08-03T10:40:59.165Z,0
2022-08-03T10:41:58.563Z,3.7
2022-08-03T10:42:58.555Z,4.5
2022-08-03T10:43:58.561Z,0
2022-08-03T10:44:58.557Z,5
2022-08-03T10:45:58.558Z,4.1000000000000005
2022-08-03T10:46:58.563Z,4.5
2022-08-03T10:47:58.549Z,3.3000000000000003
2022-08-03T10:48:58.612Z,0
2022-08-03T10:49:58.556Z,0
2022-08-03T10:50:58.571Z,2.7
2022-08-03T10:51:58.567Z,0
2022-08-03T10:52:58.566Z,0
2022-08-03T10:53:58.559Z,0
2022-08-03T10:54:58.564Z,3.4000000000000004
2022-08-03T10:55:58.565Z,0
2022-08-03T10:56:58.569Z,0
2022-08-03T10:57:59.146Z,0
2022-08-03T10:58:58.576Z,0
2022-08-03T10:59:58.575Z,1.3
2022-08-03T11:00:58.636Z,3.7
2022-08-03T11:02:00.955Z,4.4
2022-08-03T11:02:58.573Z,0
2022-08-03T11:03:58.569Z,0
2022-08-03T11:04:58.585Z,0
2022-08-03T11:05:58.574Z,5.800000000000001
2022-08-03T11:06:58.580Z,4
2022-08-03T11:07:58.580Z,2.8000000000000003
2022-08-03T11:08:58.575Z,2.8000000000000003
2022-08-03T11:09:58.586Z,0
2022-08-03T11:10:58.586Z,1.4000000000000001
2022-08-03T11:11:58.588Z,0
2022-08-03T11:12:58.582Z,0
2022-08-03T11:13:58.578Z,0
2022-08-03T11:14:58.585Z,0
2022-08-03T11:15:59.693Z,5
2022-08-03T11:16:58.584Z,2.2
2022-08-03T11:17:58.586Z,4
2022-08-03T11:18:58.588Z,4.2
2022-08-03T11:19:58.836Z,3.4000000000000004
2022-08-03T11:20:58.586Z,1.3
2022-08-03T11:21:58.598Z,0
2022-08-03T11:22:58.585Z,0
2022-08-03T11:24:03.875Z,0
2022-08-03T11:24:58.593Z,1.4000000000000001
2022-08-03T11:25:58.590Z,6.300000000000001
2022-08-03T11:27:00.926Z,1.9000000000000001
2022-08-03T11:27:58.594Z,0
2022-08-03T11:28:58.590Z,1.8
2022-08-03T11:29:58.600Z,2.5
2022-08-03T11:30:58.595Z,0
2022-08-03T11:31:58.620Z,0
2022-08-03T11:32:58.604Z,0
2022-08-03T11:33:58.602Z,0
2022-08-03T11:34:58.599Z,4.5
2022-08-03T11:35:58.607Z,2
2022-08-03T11:36:58.602Z,0
2022-08-03T11:38:01.670Z,0
2022-08-03T11:38:58.604Z,0
2022-08-03T11:39:58.605Z,2.2
2022-08-03T11:40:58.605Z,1.6
2022-08-03T11:41:58.606Z,5.7
2022-08-03T11:42:58.608Z,4.9
2022-08-03T11:43:58.607Z,5.800000000000001
2022-08-03T11:44:58.613Z,0
2022-08-03T11:45:58.611Z,5
2022-08-03T11:46:58.618Z,0
2022-08-03T11:47:58.609Z,10.600000000000001
2022-08-03T11:48:58.646Z,10.100000000000001
2022-08-03T11:49:58.606Z,4.2
2022-08-03T11:50:58.625Z,2.4000000000000004
2022-08-03T11:51:58.620Z,2.3000000000000003
2022-08-03T11:52:58.629Z,0
2022-08-03T11:53:58.625Z,7.5
2022-08-03T11:54:58.627Z,4.4
2022-08-03T11:55:58.623Z,0.8
2022-08-03T11:56:58.626Z,0
2022-08-03T11:58:57.610Z,5
2022-08-03T11:59:19.628Z,7.800000000000001
2022-08-03T11:59:58.629Z,3.4000000000000004
2022-08-03T12:00:58.633Z,0
2022-08-03T12:01:58.627Z,2.8000000000000003
2022-08-03T12:02:58.661Z,1.6
2022-08-03T12:03:58.629Z,4.9
2022-08-03T12:04:58.637Z,0
2022-08-03T12:05:58.632Z,0
2022-08-03T12:06:58.634Z,2.9000000000000004
2022-08-03T12:08:04.525Z,3.8000000000000003
2022-08-03T12:08:58.642Z,4.1000000000000005
2022-08-03T12:09:58.641Z,6
2022-08-03T12:10:58.650Z,5.4
2022-08-03T12:12:00.795Z,0
2022-08-03T12:12:58.652Z,1
2022-08-03T12:14:27.466Z,8.3
2022-08-03T12:14:58.645Z,6.5
2022-08-03T12:15:58.637Z,6
2022-08-03T12:16:58.650Z,2.2
2022-08-03T12:17:58.644Z,5.7
2022-08-03T12:18:58.639Z,4.2
2022-08-03T12:19:58.645Z,1.8
2022-08-03T12:20:58.650Z,2.5
2022-08-03T12:21:58.643Z,3.3000000000000003
2022-08-03T12:22:58.652Z,4
2022-08-03T12:23:58.645Z,3.3000000000000003
2022-08-03T12:24:58.646Z,5.1000000000000005
2022-08-03T12:25:58.646Z,5
2022-08-03T12:26:59.932Z,0.8
2022-08-03T12:27:58.652Z,0
2022-08-03T12:28:58.656Z,0
2022-08-03T12:29:59.240Z,0
2022-08-03T12:30:58.656Z,9.4
2022-08-03T12:31:58.658Z,7.6000000000000005
2022-08-03T12:32:58.658Z,7
2022-08-03T12:33:59.190Z,7
2022-08-03T12:34:59.969Z,9.200000000000001
2022-08-03T12:35:58.658Z,5.9
2022-08-03T12:36:58.664Z,6
2022-08-03T12:37:58.659Z,4
2022-08-03T12:38:58.662Z,9.4
2022-08-03T12:40:00.678Z,11.3
2022-08-03T12:40:58.665Z,9.3
2022-08-03T12:41:58.665Z,5.6000000000000005
2022-08-03T12:42:58.668Z,8.700000000000001
2022-08-03T12:43:58.659Z,5.4
2022-08-03T12:44:58.660Z,3.9000000000000004
2022-08-03T12:45:58.659Z,3.1
2022-08-03T12:46:58.680Z,0
2022-08-03T12:47:58.678Z,6.800000000000001
2022-08-03T12:48:58.690Z,1.3
2022-08-03T12:49:58.667Z,0
2022-08-03T12:50:58.670Z,0.4
2022-08-03T12:51:59.454Z,2.6
2022-08-03T12:52:58.679Z,4.1000000000000005
2022-08-03T12:53:58.668Z,0.6000000000000001
2022-08-03T12:54:58.674Z,3.5
2022-08-03T12:56:04.885Z,3.2
2022-08-03T12:56:58.671Z,6.1000000000000005
2022-08-03T12:57:58.672Z,2.7
2022-08-03T12:58:58.674Z,0
2022-08-03T12:59:58.674Z,1.4000000000000001
2022-08-03T13:00:58.678Z,0
2022-08-03T13:01:58.700Z,0
2022-08-03T13:03:17.599Z,0
2022-08-03T13:03:58.674Z,1.9000000000000001
2022-08-03T13:04:58.679Z,2.7
2022-08-03T13:05:58.676Z,6.6000000000000005
2022-08-03T13:07:02.438Z,6
2022-08-03T13:07:58.695Z,7.1000000000000005
2022-08-03T13:08:58.683Z,3.4000000000000004
2022-08-03T13:09:58.669Z,0.5
2022-08-03T13:10:58.683Z,0
2022-08-03T13:12:02.548Z,0
2022-08-03T13:12:58.691Z,1.1
2022-08-03T13:13:58.680Z,0
2022-08-03T13:14:58.685Z,0
2022-08-03T13:15:58.684Z,1.4000000000000001
2022-08-03T13:16:58.680Z,0
2022-08-03T13:17:58.674Z,1.2000000000000002
2022-08-03T13:18:58.687Z,3.5
2022-08-03T13:19:58.691Z,1.1
2022-08-03T13:20:58.706Z,0
2022-08-03T13:22:03.257Z,0
2022-08-03T13:23:00.904Z,3.4000000000000004
2022-08-03T13:23:58.684Z,0
2022-08-03T13:24:58.680Z,2.2
2022-08-03T13:25:58.679Z,0
2022-08-03T13:26:58.687Z,0
2022-08-03T13:28:02.811Z,0
2022-08-03T13:28:58.686Z,2.7
2022-08-03T13:29:58.688Z,1.1
2022-08-03T13:30:58.688Z,5.300000000000001
2022-08-03T13:31:58.684Z,5.9
2022-08-03T13:32:58.687Z,1.9000000000000001
2022-08-03T13:33:58.687Z,5.5
2022-08-03T13:34:58.691Z,4.4
2022-08-03T13:35:58.681Z,6.4
2022-08-03T13:37:08.759Z,0.6000000000000001